AirNav   Air Wisconsin Up To $57,000 Bonus
 
 1018 users online  

NY01 Knowlesville Airport
Knowlesville, New York, USA

GOING TO KNOWLESVILLE?


FAA INFORMATION EFFECTIVE 05 DECEMBER 2019

Location

FAA Identifier: NY01
Lat/Long: 43-13-15.2100N 078-18-54.0820W
43-13.253500N 078-18.901367W
43.2208917,-78.3150228
(estimated)
Elevation: 555 ft. / 169 m (estimated)
Variation: 10W (1985)
From city: 2 miles S of KNOWLESVILLE, NY
Time zone: UTC -5 (UTC -4 during Daylight Saving Time)
Zip code: 14411

Airport Operations

Airport use: Private use. Permission required prior to landing
Activation date: 09/1971
Control tower: no
ARTCC: CLEVELAND CENTER
FSS: BUFFALO FLIGHT SERVICE STATION
Attendance: UNATNDD
Wind indicator: yes
Segmented circle: no

Airport Communications

WX AWOS-3PT at GVQ (13 nm SE): 127.525 (585-343-6369)

Nearby radio navigation aids

VOR radial/distance  VOR name  Freq  Var
BUFr048/22.8BUFFALO VOR/DME116.4008W
ROCr294/28.8ROCHESTER VOR/DME110.0012W
GEEr321/34.5GENESEO VOR/DME108.2009W

Airport Services

Airframe service: NONE
Powerplant service: NONE

Runway Information

Runway E/W

Dimensions: 1925 x 60 ft. / 587 x 18 m
Surface: turf, in good condition
RUNWAY E  RUNWAY W
Traffic pattern: leftleft
Obstructions: 17 ft. road, 36 ft. from runway, 2:1 slope to clear42 ft. trees, 100 ft. right of centerline, 1:1 slope to clear

Airport Ownership and Management from official FAA records

Ownership: Privately-owned
Owner: FELSTEAD AIR LTD.
2886 S. LYNDONVILLE ROAD
MEDINA, NY 14103
Phone 716-798-1031
Manager: RONALD FELSTEAD
2886 LYNDONVILLE ROAD
MEDINA, NY 14103
Phone 716-798-1031

Airport Operational Statistics

Aircraft based on the field: 1
Single engine airplanes: 1
    

Additional Remarks

CTN WHEN LNDG TO W/HWY TFC/SOME BRUSH GROWTH SW OF AIRPORT, AND 300 FT WEST OF WEST END OF RY.
FOR CD CTC CLEVELAND ARTCC AT 440-774-0490.

Instrument Procedures

There are no published instrument procedures at NY01.

Some nearby airports with instrument procedures:

9G6 - Pine Hill Airport (3 nm SE)
KGVQ - Genesee County Airport (13 nm SE)
9G3 - Akron Airport/Jesson Field (14 nm SW)
7G0 - Ledgedale Airpark (18 nm E)
5G0 - Le Roy Airport (22 nm SE)
 
Loc | Ops | Rwys | IFR | FBO | Links
Com | Nav | Svcs | Stats | Notes
Area around NY01 (Knowlesville Airport)
 
Road maps at: MapQuest Bing Google
 
Aerial photo
No photo
 
Sectional chart

 
Airport distance calculator
Flying to Knowlesville Airport? Find the distance to fly.

From to NY01

Sunrise and sunset
Times for 09-Dec-2019
 Local
(UTC-5)
 Zulu
(UTC)
Morning civil twilight07:0212:02
Sunrise07:3412:34
Sunset16:3721:37
Evening civil twilight17:0922:09

Current date and time
Zulu (UTC)  09-Dec-2019 23:41:00
Local (UTC-5)  09-Dec-2019 18:41:00
 
METAR
KGVQ 
13nm SE 
092256Z AUTO 22011G22KT 10SM -RA SCT032 BKN048 OVC060 08/06 A2947 RMK AO2 RAB2157 SLP983 P0002 T00830061
KBUF 
25nm SW 
092254Z 20017KT 9SM -RA OVC022 10/08 A2947 RMK AO2 PK WND 20028/2225 SLP981 P0002 T01000078
TAF
KBUF 
25nm SW 
092118Z 0921/1018 19019KT P6SM -RA FEW019 OVC030 WS020/22045KT TEMPO 0922/1002 5SM -RA BKN015 OVC025 FM100200 22014G22KT 5SM -SHRA BR OVC007 FM100800 25025G35KT P6SM VCSH OVC015 FM101300 27020G30KT P6SM BKN025
KIAG 
28nm W 
092118Z 0921/1018 19015KT 3SM -RA BR FEW015 OVC022 TEMPO 0921/1001 3SM -RA BKN015 OVC020 FM100100 22014G22KT 3SM -SHRA BR OVC007 FM100800 24020G30KT P6SM VCSH OVC015 FM101200 27020G30KT P6SM BKN025
KROC 
28nm E 
092118Z 0921/1018 19013G22KT P6SM -RA FEW045 OVC060 FM100300 20010KT P6SM VCSH OVC025 WS020/23040KT FM100900 25015G25KT P6SM BKN015 FM101300 26018G26KT P6SM BKN025
NOTAMs
Click for the latest NOTAMs
NOTAMs are issued by the DoD/FAA and will open in a separate window not controlled by AirNav.

 

 
 

Would you like to see your business listed on this page?

 If your business provides an interesting product or service to pilots, flight crews, aircraft, or users of the Knowlesville Airport, you should consider listing it here.  To start the listing process, click on the button below
 
Add a business
 

Other Pages about Knowlesville Airport

Update a link
 
Copyright © AirNav, LLC. All rights reserved. Privacy Policy  Contact